Decoded Metar for SARI (IGUAZU FALLS in ARGENTINA) (IATA:IGR) | Meteo·Mobile Aviation Weather
aviador You're here:

SARI Decoded Metar

IGUAZU FALLS in ARGENTINA
Report Time2018-11-19 08:00:00
UTC Time2018-11-19 08:56:37
Flight Rules vfr VFR
Wind180° at 05 kt
W.Decomp.*RWY 13: 2.1 kt HW 4.5 kt RCW
W.Rank180° ranks 2
Current wind is below 180° avg. (6.8)
Visibility9999 m
Phenomena:N/A
Clouds:N/A
CeilingNone
Temp18°C (ISA +5)
Dew Point18°C (100% RH)
QNH1015 hPa
Density Alt1,654 ft
Elevation886 ft
Report Wrong Elevation
Raw Report
METAR SARI 190800Z 18005KT CAVOK 18/18 Q1015=

Extra information for SARI:More info

Metar Taf Metar & Taf Last 4 Metars F.Rules Stats Wind Profile Meteogram Temp Stats Airport Information Weather charts Add Link Nearby VenuesMetar ALERT Operation Metar Decoded Social comments